Terminal Aerodrome Forecast
Issued by NWS Paducah, KY

Home | Current Version | Previous Version | Text Only | Print | Product List | Glossary On
Versions: 1 2 3 4 5 6 7 8 9 10 11 12 13 14 15 16 17 18 19
000
FTUS43 KPAH 011908 AAB
TAFEVV
TAF AMD
KEVV 011908Z 0119/0218 22009KT P6SM -SHRA SCT030 BKN080
      TEMPO 0119/0120 26014G28KT 4SM -TSRA BR BKN025CB
     FM012000 24006KT P6SM VCSH SCT035 BKN060
     FM020400 30007KT P6SM FEW050 SCT150
     FM021200 28004KT P6SM SCT015 BKN025=

USA.gov is the U.S. government's official web portal to all federal, state and local government web resources and services.